Time;durP1;ratioP1;P1;durP2;ratioP2;P2;SDS_P1;SDS_P2;PMS_P1;PMS_P2;Temp;Humidity;BMP_temperature;BMP_pressure;BME280_temperature;BME280_humidity;BME280_pressure;Samples;Min_cycle;Max_cycle;Signal;HPM_P1;HPM_P2
2022/03/07 00:01:15;;;;;;;13.02;7.15;;;;;;;1.61;95.16;102836.91;5051628;28;20040;-74
2022/03/07 00:03:40;;;;;;;12.85;7.10;;;;;;;1.51;95.41;102834.91;5049171;28;20096;-74
2022/03/07 00:06:05;;;;;;;12.18;6.97;;;;;;;1.42;96.12;102842.50;5051674;28;20067;-74
2022/03/07 00:08:31;;;;;;;14.30;6.82;;;;;;;1.37;96.13;102833.66;5043474;28;20108;-73
2022/03/07 00:10:56;;;;;;;13.77;7.00;;;;;;;1.28;96.09;102832.59;5031942;28;20031;-74
2022/03/07 00:13:21;;;;;;;14.23;6.90;;;;;;;1.19;95.67;102844.50;5031745;28;20465;-74
2022/03/07 00:15:47;;;;;;;12.20;6.60;;;;;;;1.09;95.81;102844.28;5048717;28;20063;-74
2022/03/07 00:18:12;;;;;;;9.77;6.60;;;;;;;1.01;96.83;102842.28;5051643;28;20468;-74
2022/03/07 00:20:38;;;;;;;11.35;6.75;;;;;;;0.95;96.87;102846.50;5051628;28;20056;-74
2022/03/07 00:23:03;;;;;;;12.80;7.38;;;;;;;0.90;96.62;102839.41;5051535;28;20029;-74
2022/03/07 00:25:29;;;;;;;10.23;6.78;;;;;;;0.86;96.38;102846.25;5050279;27;20032;-73
2022/03/07 00:27:54;;;;;;;13.35;7.35;;;;;;;0.82;96.87;102852.22;5051479;28;20039;-73
2022/03/07 00:30:20;;;;;;;12.43;6.63;;;;;;;0.79;97.24;102849.50;5051099;28;20074;-74
2022/03/07 00:32:45;;;;;;;12.10;6.60;;;;;;;0.75;97.44;102850.28;5051302;28;20108;-74
2022/03/07 00:35:10;;;;;;;14.90;6.93;;;;;;;0.73;97.76;102851.94;5046689;28;20049;-73
2022/03/07 00:37:37;;;;;;;10.82;6.40;;;;;;;0.69;97.15;102851.00;5042142;28;20034;-73
2022/03/07 00:40:05;;;;;;;16.15;6.88;;;;;;;0.62;97.04;102862.09;5031525;28;20022;-73
2022/03/07 00:42:30;;;;;;;13.77;6.95;;;;;;;0.53;96.41;102857.47;5031005;28;20106;-73
2022/03/07 00:44:56;;;;;;;14.73;7.20;;;;;;;0.45;96.78;102856.38;5030698;28;20389;-73
2022/03/07 00:47:21;;;;;;;11.40;7.20;;;;;;;0.41;97.23;102862.31;5043796;28;20032;-74
2022/03/07 00:49:46;;;;;;;12.85;7.53;;;;;;;0.36;97.66;102858.69;5051154;28;20036;-73
2022/03/07 00:52:12;;;;;;;14.20;7.10;;;;;;;0.34;97.59;102870.81;5051079;28;20065;-74
2022/03/07 00:54:37;;;;;;;12.02;6.95;;;;;;;0.30;97.43;102873.31;5051234;28;20107;-74
2022/03/07 00:57:03;;;;;;;15.98;8.10;;;;;;;0.28;97.99;102871.50;5041096;28;20452;-74
2022/03/07 00:59:28;;;;;;;10.25;6.68;;;;;;;0.27;98.21;102868.00;5051215;28;20056;-73
2022/03/07 01:01:53;;;;;;;12.73;7.40;;;;;;;0.26;98.16;102867.97;5047229;28;20511;-74
2022/03/07 01:04:19;;;;;;;14.18;6.88;;;;;;;0.21;97.44;102872.16;5050732;28;20472;-73
2022/03/07 01:06:44;;;;;;;13.35;7.18;;;;;;;0.13;97.32;102872.78;5049165;28;20064;-75
2022/03/07 01:09:10;;;;;;;13.60;6.65;;;;;;;0.09;97.41;102867.44;5050182;28;20021;-74
2022/03/07 01:11:35;;;;;;;14.25;7.63;;;;;;;0.01;97.67;102867.19;5041527;28;20039;-74
2022/03/07 01:14:01;;;;;;;13.43;7.13;;;;;;;-0.03;97.91;102871.41;5030907;28;20028;-74
2022/03/07 01:16:26;;;;;;;13.13;6.50;;;;;;;-0.05;98.12;102874.81;5030826;28;20096;-73
2022/03/07 01:18:51;;;;;;;11.73;7.00;;;;;;;-0.08;98.54;102865.16;5049853;28;20025;-73
2022/03/07 01:21:17;;;;;;;11.02;6.88;;;;;;;-0.12;98.51;102865.91;5050752;28;20020;-74
2022/03/07 01:23:42;;;;;;;13.48;7.45;;;;;;;-0.15;98.36;102871.03;5050756;28;20025;-73
2022/03/07 01:26:08;;;;;;;15.00;7.30;;;;;;;-0.18;99.21;102873.53;5047275;28;20036;-73
2022/03/07 01:28:33;;;;;;;18.52;7.95;;;;;;;-0.18;99.42;102869.22;5042440;28;20094;-74
2022/03/07 01:30:59;;;;;;;12.50;7.63;;;;;;;-0.17;99.35;102870.09;5037502;28;20080;-74
2022/03/07 01:33:24;;;;;;;15.00;7.45;;;;;;;-0.20;99.45;102870.88;5029698;28;20591;-73
2022/03/07 01:35:49;;;;;;;12.32;7.35;;;;;;;-0.19;99.63;102875.25;5030789;28;20033;-74
2022/03/07 01:38:14;;;;;;;13.45;7.45;;;;;;;-0.20;99.47;102870.88;5033090;28;20484;-73
2022/03/07 01:40:42;;;;;;;12.88;7.13;;;;;;;-0.21;99.14;102878.66;5039916;28;20034;-74
2022/03/07 01:43:08;;;;;;;12.95;7.45;;;;;;;-0.23;99.05;102872.50;5073167;27;20039;-74
2022/03/07 01:45:33;;;;;;;15.73;7.57;;;;;;;-0.29;98.18;102867.09;5134342;27;20374;-74
2022/03/07 01:47:58;;;;;;;10.93;6.95;;;;;;;-0.35;97.84;102873.84;5132195;27;20027;-74
2022/03/07 01:50:24;;;;;;;15.05;7.57;;;;;;;-0.41;97.75;102862.34;5130328;27;20128;-73
2022/03/07 01:52:53;;;;;;;13.30;7.38;;;;;;;-0.46;97.24;102864.81;5114700;28;20051;-74
2022/03/07 01:55:19;;;;;;;15.00;8.10;;;;;;;-0.50;98.43;102860.31;5112944;28;20028;-74
2022/03/07 01:57:46;;;;;;;14.07;7.80;;;;;;;-0.52;98.66;102867.22;5113543;28;20425;-74
2022/03/07 02:00:40;;;;;;;16.33;8.10;;;;;;;-0.58;98.48;102867.88;5114548;27;20031;-74
2022/03/07 02:03:06;;;;;;;15.52;8.25;;;;;;;-0.56;99.04;102862.75;5046577;28;20057;-74
2022/03/07 02:05:32;;;;;;;19.70;8.63;;;;;;;-0.57;99.04;102860.97;5046185;28;20045;-73
2022/03/07 02:07:58;;;;;;;15.25;8.70;;;;;;;-0.55;99.21;102868.00;5039093;28;20036;-74
2022/03/07 02:10:27;;;;;;;13.63;7.78;;;;;;;-0.53;99.29;102855.91;5042094;28;20025;-74
2022/03/07 02:12:53;;;;;;;14.80;8.52;;;;;;;-0.49;99.10;102854.28;5031913;28;20532;-74
2022/03/07 02:15:18;;;;;;;15.00;8.15;;;;;;;-0.50;98.96;102845.63;5030747;28;20029;-74
2022/03/07 02:17:47;;;;;;;14.85;8.13;;;;;;;-0.47;100.00;102850.03;5030817;28;20030;-74
2022/03/07 02:20:13;;;;;;;16.60;8.85;;;;;;;-0.40;100.00;102857.19;5030414;28;20040;-75
2022/03/07 02:22:40;;;;;;;16.08;8.80;;;;;;;-0.27;100.00;102847.19;5045350;28;20081;-74
2022/03/07 02:25:06;;;;;;;14.63;8.23;;;;;;;-0.17;100.00;102857.06;5048920;28;20211;-74
2022/03/07 02:27:32;;;;;;;15.27;8.45;;;;;;;-0.09;100.00;102852.09;5050688;28;20162;-74
2022/03/07 02:29:59;;;;;;;14.45;8.88;;;;;;;-0.02;100.00;102844.53;5040430;28;20116;-74
2022/03/07 02:32:26;;;;;;;15.15;8.35;;;;;;;0.07;99.21;102853.50;5050320;28;20540;-74
2022/03/07 02:34:51;;;;;;;13.00;8.27;;;;;;;0.10;98.84;102845.75;5031644;28;20120;-74
2022/03/07 02:37:17;;;;;;;13.90;7.50;;;;;;;0.16;98.70;102841.63;5034217;28;20108;-74
2022/03/07 02:39:42;;;;;;;14.18;7.40;;;;;;;0.19;98.80;102850.38;5079591;28;20395;-74
2022/03/07 02:42:08;;;;;;;12.52;7.65;;;;;;;0.24;98.43;102841.84;5107102;28;20081;-74
2022/03/07 02:44:33;;;;;;;14.93;8.25;;;;;;;0.28;98.69;102833.31;5042897;28;20064;-73
2022/03/07 02:46:58;;;;;;;17.50;8.40;;;;;;;0.32;98.41;102836.91;5045826;28;20035;-74
2022/03/07 02:49:24;;;;;;;14.60;8.63;;;;;;;0.33;99.17;102836.03;5029621;28;20026;-73
2022/03/07 02:51:49;;;;;;;15.50;8.48;;;;;;;0.37;99.18;102834.41;5029344;28;20026;-74
2022/03/07 02:54:15;;;;;;;16.15;8.63;;;;;;;0.41;99.98;102829.34;5035060;28;20037;-75
2022/03/07 02:56:40;;;;;;;14.45;8.85;;;;;;;0.45;100.00;102831.19;5049218;28;20028;-74
2022/03/07 02:59:05;;;;;;;17.00;9.32;;;;;;;0.50;100.00;102833.94;5038731;27;20031;-72
2022/03/07 03:01:31;;;;;;;14.32;7.90;;;;;;;0.57;99.90;102829.78;5049142;28;20065;-74
2022/03/07 03:03:56;;;;;;;17.33;8.65;;;;;;;0.61;99.44;102831.63;5037475;28;20113;-73
2022/03/07 03:06:21;;;;;;;16.02;8.38;;;;;;;0.63;99.24;102832.56;5047321;28;20021;-73
2022/03/07 03:08:46;;;;;;;18.27;8.30;;;;;;;0.65;99.68;102829.16;5051743;28;20425;-75
2022/03/07 03:11:12;;;;;;;15.82;8.52;;;;;;;0.68;99.89;102830.06;5052467;28;20083;-75
2022/03/07 03:13:38;;;;;;;15.65;9.15;;;;;;;0.72;99.85;102835.44;5052615;28;20029;-75
2022/03/07 03:16:04;;;;;;;14.95;8.52;;;;;;;0.72;99.84;102832.81;5053576;28;20032;-74
2022/03/07 03:18:30;;;;;;;14.50;7.88;;;;;;;0.76;99.39;102826.84;5045011;28;20037;-74
2022/03/07 03:20:55;;;;;;;15.63;8.50;;;;;;;0.75;99.38;102832.91;5032521;28;20034;-74
2022/03/07 03:23:22;;;;;;;14.27;8.77;;;;;;;0.76;99.62;102829.44;5032706;28;20029;-75
2022/03/07 03:25:48;;;;;;;14.70;8.68;;;;;;;0.78;99.97;102837.31;5033994;28;20045;-75
2022/03/07 03:28:13;;;;;;;17.05;8.88;;;;;;;0.79;99.66;102826.03;5052009;28;20052;-73
2022/03/07 03:30:39;;;;;;;15.20;8.63;;;;;;;0.80;100.00;102835.66;5033192;28;20030;-74
2022/03/07 03:33:04;;;;;;;13.38;8.00;;;;;;;0.84;100.00;102826.19;5032731;28;20074;-74
2022/03/07 03:35:30;;;;;;;13.93;8.30;;;;;;;0.84;100.00;102819.22;5032374;28;20472;-75
2022/03/07 03:37:55;;;;;;;13.85;8.95;;;;;;;0.89;100.00;102816.75;5046566;28;20033;-74
2022/03/07 03:40:21;;;;;;;16.60;8.20;;;;;;;0.91;99.98;102818.56;5049189;28;20544;-73
2022/03/07 03:42:46;;;;;;;16.50;8.65;;;;;;;0.87;99.85;102816.72;5079701;27;20043;-74
2022/03/07 03:45:12;;;;;;;16.08;8.38;;;;;;;0.85;100.00;102825.34;5136382;27;20383;-74
2022/03/07 03:47:40;;;;;;;16.95;8.85;;;;;;;0.86;100.00;102814.94;5130545;27;20102;-74
2022/03/07 03:50:08;;;;;;;16.35;9.07;;;;;;;0.85;100.00;102821.00;5128957;27;20029;-73
2022/03/07 03:52:34;;;;;;;14.73;8.80;;;;;;;0.82;99.73;102806.16;5115396;28;20059;-75
2022/03/07 03:55:01;;;;;;;12.77;8.90;;;;;;;0.84;100.00;102816.63;5115908;28;20051;-75
2022/03/07 03:57:27;;;;;;;15.45;8.57;;;;;;;0.86;100.00;102814.94;5116033;28;20027;-73
2022/03/07 03:59:52;;;;;;;15.57;8.50;;;;;;;0.86;100.00;102814.03;5126327;27;20019;-74
2022/03/07 04:02:17;;;;;;;13.43;7.97;;;;;;;0.85;99.86;102817.53;5115574;28;20049;-74
2022/03/07 04:04:43;;;;;;;16.23;8.10;;;;;;;0.85;99.52;102817.53;5115688;28;20031;-74
2022/03/07 04:07:08;;;;;;;13.93;8.52;;;;;;;0.82;99.82;102820.94;5115725;28;20030;-75
2022/03/07 04:09:33;;;;;;;12.20;7.97;;;;;;;0.85;99.95;102818.41;5119315;27;20463;-74
2022/03/07 04:11:59;;;;;;;13.98;8.15;;;;;;;0.89;100.00;102806.31;5118106;27;20031;-74
2022/03/07 04:14:24;;;;;;;12.85;7.70;;;;;;;0.88;99.86;102821.06;5115448;28;20051;-75
2022/03/07 04:16:50;;;;;;;13.82;7.20;;;;;;;0.90;99.51;102818.53;5115558;28;20028;-74
2022/03/07 04:19:15;;;;;;;15.35;7.85;;;;;;;0.90;98.96;102819.41;5111122;27;20060;-74
2022/03/07 04:21:42;;;;;;;11.77;7.38;;;;;;;0.93;99.37;102819.50;5118402;27;20114;-74
2022/03/07 04:24:09;;;;;;;11.07;7.30;;;;;;;0.96;98.79;102821.31;5130031;27;20055;-74
2022/03/07 04:26:35;;;;;;;17.00;7.72;;;;;;;0.94;98.91;102821.25;5135860;27;20113;-74
2022/03/07 04:29:03;;;;;;;12.95;8.23;;;;;;;0.92;99.01;102815.13;5135762;27;20034;-75
2022/03/07 04:31:29;;;;;;;11.32;7.07;;;;;;;0.92;98.48;102816.84;5127499;27;20050;-74
2022/03/07 04:33:54;;;;;;;10.93;7.35;;;;;;;0.94;97.94;102815.16;5115030;28;20020;-75
2022/03/07 04:36:20;;;;;;;12.00;7.45;;;;;;;0.90;97.89;102813.31;5127198;27;20027;-74
2022/03/07 04:38:46;;;;;;;13.18;7.35;;;;;;;0.89;97.92;102819.38;5135220;27;20019;-75
2022/03/07 04:41:11;;;;;;;12.52;7.05;;;;;;;0.80;97.56;102817.38;5126029;27;20282;-75
2022/03/07 04:43:37;;;;;;;13.18;7.70;;;;;;;0.70;97.84;102834.50;5078067;27;20492;-74
2022/03/07 04:46:02;;;;;;;15.73;7.78;;;;;;;0.61;97.87;102815.97;5051194;28;20025;-74
2022/03/07 04:48:28;;;;;;;11.82;7.13;;;;;;;0.54;97.53;102821.84;5036204;28;20029;-73
2022/03/07 04:50:53;;;;;;;16.92;8.38;;;;;;;0.44;97.99;102818.13;5031454;28;20029;-74
2022/03/07 04:53:18;;;;;;;13.43;7.20;;;;;;;0.44;98.75;102818.13;5052198;28;20491;-75
2022/03/07 04:55:44;;;;;;;12.65;7.32;;;;;;;0.44;98.80;102829.41;5050673;28;20032;-75
2022/03/07 04:58:09;;;;;;;13.57;7.75;;;;;;;0.41;98.67;102812.78;5041614;28;20028;-74
2022/03/07 05:00:35;;;;;;;15.10;7.88;;;;;;;0.34;99.14;102811.75;5031176;28;20493;-74
2022/03/07 05:03:00;;;;;;;12.43;7.50;;;;;;;0.32;99.03;102816.03;5044148;28;20115;-75
2022/03/07 05:05:25;;;;;;;13.43;7.90;;;;;;;0.23;99.33;102811.44;5050644;28;20096;-75
2022/03/07 05:07:51;;;;;;;13.93;7.35;;;;;;;0.19;99.26;102816.50;5046767;28;20032;-75
2022/03/07 05:10:17;;;;;;;13.15;7.90;;;;;;;0.11;98.97;102813.66;5014305;28;20034;-74
2022/03/07 05:12:43;;;;;;;12.95;8.13;;;;;;;0.02;98.71;102808.19;5036325;28;20037;-74
2022/03/07 05:15:09;;;;;;;13.98;8.13;;;;;;;-0.06;99.14;102805.34;5050578;28;20032;-74
2022/03/07 05:17:46;;;;;;;12.05;7.78;;;;;;;-0.12;99.04;102811.22;5049902;28;20021;-73
2022/03/07 05:20:12;;;;;;;12.93;7.47;;;;;;;-0.17;99.46;102815.41;5050170;28;20051;-73
2022/03/07 05:22:42;;;;;;;15.93;7.90;;;;;;;-0.22;99.34;102820.50;5050378;28;20029;-75
2022/03/07 05:25:08;;;;;;;13.70;7.75;;;;;;;-0.24;99.80;102816.06;5051283;28;20506;-75
2022/03/07 05:27:34;;;;;;;16.17;7.70;;;;;;;-0.29;99.51;102817.63;5050587;28;20029;-73
2022/03/07 05:30:00;;;;;;;15.85;8.13;;;;;;;-0.36;98.77;102824.34;5049410;28;20047;-75
2022/03/07 05:32:25;;;;;;;14.73;7.68;;;;;;;-0.44;98.89;102818.88;5050358;28;20089;-75
2022/03/07 05:34:50;;;;;;;15.05;8.10;;;;;;;-0.51;99.51;102815.22;5051232;28;20037;-74
2022/03/07 05:37:15;;;;;;;16.15;8.50;;;;;;;-0.53;99.86;102821.19;5050579;28;20082;-74
2022/03/07 05:39:41;;;;;;;15.82;8.43;;;;;;;-0.60;100.00;102814.00;5042155;28;20029;-75
2022/03/07 05:42:06;;;;;;;13.23;7.75;;;;;;;-0.67;100.00;102826.81;5029914;28;20120;-75
2022/03/07 05:44:32;;;;;;;13.73;8.15;;;;;;;-0.71;100.00;102824.06;5036323;28;20063;-75
2022/03/07 05:46:58;;;;;;;14.27;7.95;;;;;;;-0.73;100.00;102824.03;5050102;28;20029;-74
2022/03/07 05:49:23;;;;;;;15.35;8.02;;;;;;;-0.76;100.00;102836.91;5049225;28;20029;-73
2022/03/07 05:51:48;;;;;;;13.85;8.20;;;;;;;-0.76;100.00;102836.03;5036872;28;20043;-75
2022/03/07 05:54:14;;;;;;;16.02;8.63;;;;;;;-0.76;100.00;102838.63;5037007;28;20033;-76
2022/03/07 05:56:39;;;;;;;17.17;8.48;;;;;;;-0.77;100.00;102840.34;5045856;27;20071;-74
2022/03/07 05:59:05;;;;;;;15.52;8.82;;;;;;;-0.77;100.00;102848.16;5060133;27;20476;-74
2022/03/07 06:01:30;;;;;;;16.90;9.02;;;;;;;-0.77;100.00;102842.06;5053047;28;20519;-75
2022/03/07 06:03:56;;;;;;;14.27;8.52;;;;;;;-0.79;100.00;102848.94;5069959;28;20024;-74
2022/03/07 06:06:21;;;;;;;15.45;8.80;;;;;;;-0.77;100.00;102853.34;5062641;28;20042;-74
2022/03/07 06:08:47;;;;;;;16.60;8.43;;;;;;;-0.77;100.00;102858.56;5050069;28;20029;-76
2022/03/07 06:11:12;;;;;;;17.05;8.50;;;;;;;-0.78;100.00;102866.31;5049519;28;20368;-74
2022/03/07 06:13:37;;;;;;;14.35;8.20;;;;;;;-0.81;100.00;102861.00;5049091;28;20021;-74
2022/03/07 06:16:03;;;;;;;15.13;8.18;;;;;;;-0.79;100.00;102854.13;5049943;28;20017;-74
2022/03/07 06:18:28;;;;;;;14.50;8.05;;;;;;;-0.76;100.00;102859.44;5050959;28;20037;-75
2022/03/07 06:20:54;;;;;;;14.43;8.63;;;;;;;-0.74;100.00;102866.47;5041148;28;20029;-74
2022/03/07 06:23:19;;;;;;;17.88;8.57;;;;;;;-0.69;100.00;102861.41;5029647;28;20021;-75
2022/03/07 06:25:44;;;;;;;16.38;8.93;;;;;;;-0.68;100.00;102860.59;5029391;28;20036;-75
2022/03/07 06:28:11;;;;;;;12.73;7.70;;;;;;;-0.71;100.00;102853.56;5052715;28;20081;-74
2022/03/07 06:30:36;;;;;;;14.70;8.38;;;;;;;-0.73;100.00;102860.44;5110206;27;20110;-74
2022/03/07 06:33:02;;;;;;;15.13;8.77;;;;;;;-0.74;100.00;102863.88;5147815;27;20125;-75
2022/03/07 06:35:27;;;;;;;15.35;8.45;;;;;;;-0.73;100.00;102869.94;5122469;27;20531;-74
2022/03/07 06:37:52;;;;;;;14.32;8.35;;;;;;;-0.75;100.00;102872.50;5077899;27;20389;-74
2022/03/07 06:40:19;;;;;;;15.32;8.32;;;;;;;-0.69;100.00;102866.63;5054936;27;20033;-76
2022/03/07 06:42:48;;;;;;;16.15;8.60;;;;;;;-0.59;100.00;102867.84;5138159;27;20054;-76
2022/03/07 06:45:16;;;;;;;15.38;8.75;;;;;;;-0.57;100.00;102872.25;5121740;27;20078;-76
2022/03/07 06:47:43;;;;;;;13.60;8.18;;;;;;;-0.57;100.00;102867.06;5125415;27;20035;-76
2022/03/07 06:50:10;;;;;;;15.68;8.82;;;;;;;-0.54;100.00;102867.16;5072266;27;20101;-75
2022/03/07 06:52:35;;;;;;;14.07;8.40;;;;;;;-0.50;100.00;102858.63;5104065;27;20047;-74
2022/03/07 06:55:00;;;;;;;16.40;9.30;;;;;;;-0.41;100.00;102872.78;5089606;27;20535;-77
2022/03/07 06:57:26;;;;;;;16.90;9.07;;;;;;;-0.31;100.00;102880.06;5071806;27;20044;-74
2022/03/07 06:59:51;;;;;;;15.13;8.93;;;;;;;-0.32;100.00;102877.41;5119072;27;20518;-75
2022/03/07 07:02:16;;;;;;;16.15;8.38;;;;;;;-0.25;99.97;102880.25;5082173;27;20505;-74
2022/03/07 07:04:43;;;;;;;15.88;8.77;;;;;;;-0.22;99.59;102875.16;5142456;27;20060;-74
2022/03/07 07:07:08;;;;;;;16.27;8.13;;;;;;;-0.14;99.51;102885.84;5053198;27;20438;-74
2022/03/07 07:09:33;;;;;;;13.40;8.55;;;;;;;-0.15;98.66;102891.88;5101724;27;20029;-75
2022/03/07 07:11:59;;;;;;;14.63;8.63;;;;;;;-0.08;98.77;102887.75;5099731;27;20066;-74
2022/03/07 07:14:24;;;;;;;13.45;8.50;;;;;;;-0.06;98.27;102880.88;5127506;27;20079;-74
2022/03/07 07:16:49;;;;;;;15.38;8.55;;;;;;;-0.01;98.90;102882.78;5064110;27;20067;-75
2022/03/07 07:19:15;;;;;;;14.98;8.82;;;;;;;0.06;98.18;102882.97;5060835;27;20383;-76
2022/03/07 07:21:40;;;;;;;15.52;8.65;;;;;;;0.13;97.65;102890.16;5105963;27;20417;-74
2022/03/07 07:24:07;;;;;;;17.33;9.20;;;;;;;0.19;97.29;102885.13;5117220;27;20030;-73
2022/03/07 07:26:32;;;;;;;15.18;8.85;;;;;;;0.27;96.84;102878.44;5064039;27;20108;-73
2022/03/07 07:28:57;;;;;;;15.93;9.15;;;;;;;0.35;96.10;102883.00;5049989;27;20119;-74
2022/03/07 07:31:23;;;;;;;15.60;8.30;;;;;;;0.39;95.95;102884.88;5091668;27;20020;-76
2022/03/07 07:33:49;;;;;;;18.05;9.30;;;;;;;0.50;95.58;102880.88;5075702;27;20048;-74
2022/03/07 07:36:14;;;;;;;16.02;9.07;;;;;;;0.48;95.28;102899.03;5056861;27;20061;-72
2022/03/07 07:38:39;;;;;;;20.90;9.35;;;;;;;0.53;95.08;102887.91;5079420;27;20023;-74
2022/03/07 07:41:04;;;;;;;17.88;9.20;;;;;;;0.60;95.00;102880.28;5054557;27;20064;-76
2022/03/07 07:43:30;;;;;;;16.05;8.88;;;;;;;0.66;94.88;102890.00;5095464;27;20515;-76
2022/03/07 07:45:55;;;;;;;18.13;9.90;;;;;;;0.77;94.41;102880.78;5135581;27;20035;-75
2022/03/07 07:48:20;;;;;;;19.40;9.70;;;;;;;0.78;93.17;102890.38;5135590;27;20060;-75
2022/03/07 07:50:46;;;;;;;17.75;9.40;;;;;;;0.82;92.74;102888.75;5127733;27;20023;-74
2022/03/07 07:53:11;;;;;;;16.02;8.95;;;;;;;0.92;92.94;102889.88;5121376;27;20379;-76
2022/03/07 07:55:36;;;;;;;15.55;9.20;;;;;;;1.00;91.54;102887.47;5135054;27;20061;-75
2022/03/07 07:58:02;;;;;;;13.60;8.20;;;;;;;1.09;91.27;102883.41;5132697;27;20065;-74
2022/03/07 08:00:27;;;;;;;18.88;9.57;;;;;;;1.14;90.71;102891.38;5141712;27;20062;-74
2022/03/07 08:02:53;;;;;;;16.35;9.23;;;;;;;1.13;90.74;102887.84;5123233;27;20027;-74
2022/03/07 08:05:19;;;;;;;16.30;9.02;;;;;;;1.15;91.17;102887.91;5121660;27;20023;-75
2022/03/07 08:07:46;;;;;;;15.63;9.15;;;;;;;1.21;90.58;102893.28;5135844;27;20027;-73
2022/03/07 08:10:14;;;;;;;17.88;9.57;;;;;;;1.26;91.13;102891.69;5134771;27;20112;-73
2022/03/07 08:12:39;;;;;;;15.73;9.27;;;;;;;1.38;89.55;102895.47;5129153;27;20123;-75
2022/03/07 08:15:06;;;;;;;15.27;9.27;;;;;;;1.42;89.30;102887.78;5134374;27;20481;-74
2022/03/07 08:17:32;;;;;;;15.50;9.23;;;;;;;1.46;89.50;102892.22;5152718;27;20018;-73
2022/03/07 08:19:57;;;;;;;13.77;9.05;;;;;;;1.56;89.76;102893.34;5152865;27;20068;-74
2022/03/07 08:22:23;;;;;;;16.77;9.23;;;;;;;1.64;88.45;102888.31;5128323;27;20323;-73
2022/03/07 08:24:48;;;;;;;20.20;9.80;;;;;;;1.73;88.08;102896.38;5143056;27;20027;-75
2022/03/07 08:27:13;;;;;;;17.75;9.30;;;;;;;1.82;88.99;102889.59;5139772;27;20031;-74
2022/03/07 08:29:39;;;;;;;14.27;9.57;;;;;;;1.92;87.60;102894.25;5135779;27;20100;-74
2022/03/07 08:32:04;;;;;;;16.90;9.68;;;;;;;2.02;86.35;102896.22;5135320;27;20072;-76
2022/03/07 08:34:31;;;;;;;15.05;9.10;;;;;;;2.13;86.44;102894.72;5111848;27;20424;-73
2022/03/07 08:36:57;;;;;;;17.95;9.60;;;;;;;2.23;86.38;102898.44;5083233;27;20029;-74
2022/03/07 08:39:22;;;;;;;15.88;9.75;;;;;;;2.34;86.00;102903.03;5127945;27;20034;-74
2022/03/07 08:41:47;;;;;;;14.30;8.38;;;;;;;2.45;82.88;102898.94;5134538;27;20378;-73
2022/03/07 08:44:12;;;;;;;15.15;9.25;;;;;;;2.51;82.82;102892.97;5065146;27;20045;-76
2022/03/07 08:46:39;;;;;;;13.50;8.73;;;;;;;2.66;82.11;102898.53;5050684;28;20025;-75
2022/03/07 08:49:04;;;;;;;16.70;8.85;;;;;;;2.75;80.83;102903.94;5065555;27;20062;-74
2022/03/07 08:51:30;;;;;;;14.15;8.45;;;;;;;2.85;80.49;102904.13;5069548;28;20051;-74
2022/03/07 08:53:55;;;;;;;13.98;8.30;;;;;;;2.90;78.98;102900.78;5067155;28;20479;-74
2022/03/07 08:56:20;;;;;;;13.00;7.75;;;;;;;3.02;78.51;102887.03;5070153;28;20033;-74
2022/03/07 08:58:45;;;;;;;13.77;8.05;;;;;;;3.18;76.67;102896.06;5070826;28;20064;-73
2022/03/07 09:01:11;;;;;;;11.38;7.63;;;;;;;3.32;77.15;102903.31;5085144;27;20031;-75
2022/03/07 09:03:36;;;;;;;12.85;7.18;;;;;;;3.64;75.27;102890.78;5057682;27;20427;-73
2022/03/07 09:06:02;;;;;;;11.13;6.65;;;;;;;4.41;70.94;102893.69;5050445;28;20048;-74
2022/03/07 09:08:27;;;;;;;13.32;7.05;;;;;;;5.89;64.86;102887.41;5050222;28;20021;-74
2022/03/07 09:10:53;;;;;;;10.45;6.07;;;;;;;7.24;59.80;102881.97;5050008;28;20529;-76
2022/03/07 09:13:18;;;;;;;8.15;5.10;;;;;;;8.71;53.57;102885.38;5051200;28;20052;-74
2022/03/07 09:15:45;;;;;;;9.07;5.47;;;;;;;9.84;48.45;102882.84;5050566;27;20033;-74
2022/03/07 09:18:12;;;;;;;7.38;4.97;;;;;;;10.54;42.52;102881.28;5049831;28;20070;-76
2022/03/07 09:20:39;;;;;;;7.63;4.85;;;;;;;11.42;39.28;102883.63;5050262;28;20036;-74
2022/03/07 09:23:04;;;;;;;8.45;5.00;;;;;;;11.57;38.43;102874.56;5049929;28;20057;-74
2022/03/07 09:25:30;;;;;;;7.93;5.35;;;;;;;11.91;38.65;102876.63;5050980;28;20064;-76
2022/03/07 09:27:55;;;;;;;9.95;4.95;;;;;;;12.05;35.93;102875.56;5051806;27;20032;-74
2022/03/07 09:30:20;;;;;;;7.85;5.13;;;;;;;12.01;38.05;102871.19;5050579;27;20560;-74
2022/03/07 09:32:46;;;;;;;8.27;5.32;;;;;;;12.27;36.08;102876.00;5041039;27;20043;-74
2022/03/07 09:35:11;;;;;;;11.63;5.00;;;;;;;12.40;35.26;102868.69;5038484;28;20035;-77
2022/03/07 09:37:37;;;;;;;8.63;4.82;;;;;;;12.68;35.41;102860.13;5049488;28;20025;-77
2022/03/07 09:40:04;;;;;;;8.18;4.88;;;;;;;12.85;35.03;102859.75;5044804;28;20060;-81
2022/03/07 09:42:30;;;;;;;7.15;4.95;;;;;;;13.41;34.68;102856.72;5044724;28;20811;-80
2022/03/07 09:44:56;;;;;;;7.93;5.00;;;;;;;13.31;33.65;102848.06;5110136;27;20143;-74
2022/03/07 09:47:22;;;;;;;7.65;4.43;;;;;;;13.87;32.75;102852.88;5127021;27;20031;-73
2022/03/07 09:49:50;;;;;;;8.27;4.90;;;;;;;13.62;33.25;102851.78;5128881;27;20028;-77
2022/03/07 09:52:16;;;;;;;7.25;4.75;;;;;;;13.41;33.27;102838.09;5114691;27;20034;-74
2022/03/07 09:54:41;;;;;;;6.90;4.68;;;;;;;13.56;32.75;102847.50;5133064;27;20023;-76
2022/03/07 09:57:06;;;;;;;6.93;4.57;;;;;;;14.38;31.10;102840.81;5133730;27;20029;-73
2022/03/07 09:59:34;;;;;;;8.35;4.38;;;;;;;14.01;31.62;102831.22;5133368;27;20027;-74
2022/03/07 10:02:14;;;;;;;7.20;4.50;;;;;;;14.07;31.23;102839.03;5134256;27;20027;-72
2022/03/07 10:04:42;;;;;;;9.13;4.88;;;;;;;13.85;31.22;102833.44;5133043;27;20424;-76
2022/03/07 10:07:07;;;;;;;6.93;4.32;;;;;;;13.92;31.42;102831.47;5133230;27;20019;-76
2022/03/07 10:09:33;;;;;;;7.85;4.93;;;;;;;14.02;31.82;102818.78;5125288;27;20118;-74
2022/03/07 10:12:05;;;;;;;6.65;4.78;;;;;;;13.89;31.94;102823.56;5127808;27;20069;-71
2022/03/07 10:14:42;;;;;;;7.85;4.85;;;;;;;14.26;30.32;102827.88;5133033;27;20019;-75
2022/03/07 10:17:30;;;;;;;7.35;4.75;;;;;;;14.51;29.70;102824.47;5127359;27;20062;-76
2022/03/07 10:20:00;;;;;;;7.78;4.80;;;;;;;14.06;31.57;102815.09;5115114;28;20161;-75
2022/03/07 10:22:27;;;;;;;9.27;4.95;;;;;;;15.23;29.28;102816.94;5128763;28;20034;-74
2022/03/07 10:25:02;;;;;;;6.88;4.65;;;;;;;14.81;29.64;102797.81;5125976;27;20035;-74
2022/03/07 10:27:33;;;;;;;15.60;6.05;;;;;;;14.29;30.74;102802.94;5127898;28;20050;-74
2022/03/07 10:29:59;;;;;;;11.00;5.10;;;;;;;14.23;30.98;102799.53;5124939;28;20096;-74
2022/03/07 10:32:24;;;;;;;11.55;5.53;;;;;;;14.13;31.94;102799.81;5135321;27;20035;-75
2022/03/07 10:34:50;;;;;;;7.90;5.63;;;;;;;14.64;31.24;102795.66;5083365;27;20033;-75
2022/03/07 10:37:15;;;;;;;7.55;5.00;;;;;;;15.10;30.45;102796.03;5128895;27;20064;-74
2022/03/07 10:39:52;;;;;;;7.07;5.30;;;;;;;14.90;30.24;102802.88;5123090;27;20371;-76
2022/03/07 10:42:18;;;;;;;8.57;5.25;;;;;;;15.30;29.43;102790.91;5120313;27;20035;-70
2022/03/07 10:44:45;;;;;;;7.22;5.78;;;;;;;14.96;29.60;102791.13;5134435;27;20035;-70
2022/03/07 10:47:19;;;;;;;7.60;5.20;;;;;;;14.91;29.30;102780.59;5132846;28;20027;-71
2022/03/07 10:49:59;;;;;;;6.60;5.00;;;;;;;15.16;29.60;102788.69;5112119;28;20077;-70
2022/03/07 10:52:25;;;;;;;6.95;5.30;;;;;;;15.19;29.64;102771.69;5112267;28;20123;-71
2022/03/07 10:54:51;;;;;;;9.07;5.43;;;;;;;14.72;30.76;102777.69;5093289;28;20037;-76
2022/03/07 10:57:18;;;;;;;8.25;5.50;;;;;;;14.49;30.82;102781.00;5094081;27;20364;-72
2022/03/07 10:59:43;;;;;;;7.35;5.03;;;;;;;15.04;30.31;102773.97;5120801;28;20035;-71
2022/03/07 11:02:14;;;;;;;8.30;5.45;;;;;;;15.45;30.02;102775.28;5113780;28;20101;-71
2022/03/07 11:04:40;;;;;;;7.18;5.30;;;;;;;15.45;28.79;102764.59;5108608;28;20107;-71
2022/03/07 11:07:08;;;;;;;7.80;5.30;;;;;;;15.68;30.13;102763.81;5112499;28;20114;-72
2022/03/07 11:09:34;;;;;;;7.57;4.85;;;;;;;16.04;28.47;102758.94;5117699;28;20027;-70
2022/03/07 11:12:00;;;;;;;7.65;5.10;;;;;;;16.10;27.46;102764.97;5113527;28;20019;-71
2022/03/07 11:14:27;;;;;;;6.78;4.80;;;;;;;15.77;28.24;102760.81;5114450;27;20103;-69
2022/03/07 11:16:56;;;;;;;7.95;5.07;;;;;;;15.53;28.89;102759.88;5129244;27;20023;-71